sensor_id;sensor_type;location;lat;lon;timestamp;temperature;humidity
60293;DHT22;52402;52.670;6.750;2024-03-02T00:00:19;6.70;99.90
60293;DHT22;52402;52.670;6.750;2024-03-02T00:02:48;6.70;99.90
60293;DHT22;52402;52.670;6.750;2024-03-02T00:05:19;6.80;99.90
60293;DHT22;52402;52.670;6.750;2024-03-02T00:07:46;6.80;99.90
60293;DHT22;52402;52.670;6.750;2024-03-02T00:10:16;6.80;99.90
60293;DHT22;52402;52.670;6.750;2024-03-02T00:12:47;6.80;99.90
60293;DHT22;52402;52.670;6.750;2024-03-02T00:17:56;6.80;99.90
60293;DHT22;52402;52.670;6.750;2024-03-02T00:20:22;6.80;99.90
60293;DHT22;52402;52.670;6.750;2024-03-02T00:22:51;6.80;99.90
60293;DHT22;52402;52.670;6.750;2024-03-02T00:25:17;6.80;99.90
60293;DHT22;52402;52.670;6.750;2024-03-02T00:27:46;6.80;99.90
60293;DHT22;52402;52.670;6.750;2024-03-02T00:33:06;6.80;99.90
60293;DHT22;52402;52.670;6.750;2024-03-02T00:35:33;6.80;99.90
60293;DHT22;52402;52.670;6.750;2024-03-02T00:38:06;6.80;99.90
60293;DHT22;52402;52.670;6.750;2024-03-02T00:40:32;6.80;99.90
60293;DHT22;52402;52.670;6.750;2024-03-02T00:42:58;6.90;99.90
60293;DHT22;52402;52.670;6.750;2024-03-02T00:45:25;6.90;99.90
60293;DHT22;52402;52.670;6.750;2024-03-02T00:47:51;6.90;99.90
60293;DHT22;52402;52.670;6.750;2024-03-02T00:50:18;6.90;99.90
60293;DHT22;52402;52.670;6.750;2024-03-02T00:52:44;6.90;99.90
60293;DHT22;52402;52.670;6.750;2024-03-02T00:55:10;6.90;99.90
60293;DHT22;52402;52.670;6.750;2024-03-02T00:57:36;6.80;99.90
60293;DHT22;52402;52.670;6.750;2024-03-02T01:00:01;6.90;99.90
60293;DHT22;52402;52.670;6.750;2024-03-02T01:02:28;6.90;99.90
60293;DHT22;52402;52.670;6.750;2024-03-02T01:04:54;6.90;99.90
60293;DHT22;52402;52.670;6.750;2024-03-02T01:07:20;6.90;99.90
60293;DHT22;52402;52.670;6.750;2024-03-02T01:09:45;7.00;99.90
60293;DHT22;52402;52.670;6.750;2024-03-02T01:12:11;7.00;99.90
60293;DHT22;52402;52.670;6.750;2024-03-02T01:14:37;7.00;99.90
60293;DHT22;52402;52.670;6.750;2024-03-02T01:17:02;7.00;99.90
60293;DHT22;52402;52.670;6.750;2024-03-02T01:19:30;7.00;99.90
60293;DHT22;52402;52.670;6.750;2024-03-02T01:21:55;7.00;99.90
60293;DHT22;52402;52.670;6.750;2024-03-02T01:24:21;7.00;99.90
60293;DHT22;52402;52.670;6.750;2024-03-02T01:26:46;7.00;99.90
60293;DHT22;52402;52.670;6.750;2024-03-02T01:29:12;7.00;99.90
60293;DHT22;52402;52.670;6.750;2024-03-02T01:31:38;7.00;99.90
60293;DHT22;52402;52.670;6.750;2024-03-02T01:34:05;7.00;99.90
60293;DHT22;52402;52.670;6.750;2024-03-02T01:36:30;7.00;99.90
60293;DHT22;52402;52.670;6.750;2024-03-02T01:38:56;7.00;99.90
60293;DHT22;52402;52.670;6.750;2024-03-02T01:41:21;7.00;99.90
60293;DHT22;52402;52.670;6.750;2024-03-02T01:43:47;7.00;99.90
60293;DHT22;52402;52.670;6.750;2024-03-02T01:46:13;7.00;99.90
60293;DHT22;52402;52.670;6.750;2024-03-02T01:48:38;7.00;99.90
60293;DHT22;52402;52.670;6.750;2024-03-02T01:51:04;7.00;99.90
60293;DHT22;52402;52.670;6.750;2024-03-02T01:53:32;7.00;99.90
60293;DHT22;52402;52.670;6.750;2024-03-02T01:55:57;7.00;99.90
60293;DHT22;52402;52.670;6.750;2024-03-02T01:58:23;7.00;99.90
60293;DHT22;52402;52.670;6.750;2024-03-02T02:00:49;7.00;99.90
60293;DHT22;52402;52.670;6.750;2024-03-02T02:03:15;6.90;99.90
60293;DHT22;52402;52.670;6.750;2024-03-02T02:05:42;6.90;99.90
60293;DHT22;52402;52.670;6.750;2024-03-02T02:08:08;7.00;99.90
60293;DHT22;52402;52.670;6.750;2024-03-02T02:10:33;7.00;99.90
60293;DHT22;52402;52.670;6.750;2024-03-02T02:13:00;7.10;99.90
60293;DHT22;52402;52.670;6.750;2024-03-02T02:15:29;7.10;99.90
60293;DHT22;52402;52.670;6.750;2024-03-02T02:17:56;7.10;99.90
60293;DHT22;52402;52.670;6.750;2024-03-02T02:20:22;7.10;99.90
60293;DHT22;52402;52.670;6.750;2024-03-02T02:25:23;7.10;99.90
60293;DHT22;52402;52.670;6.750;2024-03-02T02:27:49;7.00;99.90
60293;DHT22;52402;52.670;6.750;2024-03-02T02:30:22;7.00;99.90
60293;DHT22;52402;52.670;6.750;2024-03-02T02:32:48;7.00;99.90
60293;DHT22;52402;52.670;6.750;2024-03-02T02:35:14;6.90;99.90
60293;DHT22;52402;52.670;6.750;2024-03-02T02:37:40;6.90;99.90
60293;DHT22;52402;52.670;6.750;2024-03-02T02:40:07;7.00;99.90
60293;DHT22;52402;52.670;6.750;2024-03-02T02:42:32;7.00;99.90
60293;DHT22;52402;52.670;6.750;2024-03-02T02:44:58;7.10;99.90
60293;DHT22;52402;52.670;6.750;2024-03-02T02:47:24;7.10;99.90
60293;DHT22;52402;52.670;6.750;2024-03-02T02:49:50;7.10;99.90
60293;DHT22;52402;52.670;6.750;2024-03-02T02:52:16;7.20;99.90
60293;DHT22;52402;52.670;6.750;2024-03-02T02:54:42;7.20;99.90
60293;DHT22;52402;52.670;6.750;2024-03-02T02:57:07;7.20;99.90
60293;DHT22;52402;52.670;6.750;2024-03-02T02:59:33;7.20;99.90
60293;DHT22;52402;52.670;6.750;2024-03-02T03:01:58;7.20;99.90
60293;DHT22;52402;52.670;6.750;2024-03-02T03:04:24;7.30;99.90
60293;DHT22;52402;52.670;6.750;2024-03-02T03:06:50;7.20;99.90
60293;DHT22;52402;52.670;6.750;2024-03-02T03:09:15;7.20;99.90
60293;DHT22;52402;52.670;6.750;2024-03-02T03:11:41;7.30;99.90
60293;DHT22;52402;52.670;6.750;2024-03-02T03:14:06;7.20;99.90
60293;DHT22;52402;52.670;6.750;2024-03-02T03:16:32;7.20;99.90
60293;DHT22;52402;52.670;6.750;2024-03-02T03:18:57;7.20;99.90
60293;DHT22;52402;52.670;6.750;2024-03-02T03:21:23;7.20;99.90
60293;DHT22;52402;52.670;6.750;2024-03-02T03:23:48;7.20;99.90
60293;DHT22;52402;52.670;6.750;2024-03-02T03:26:14;7.10;99.90
60293;DHT22;52402;52.670;6.750;2024-03-02T03:28:40;7.10;99.90
60293;DHT22;52402;52.670;6.750;2024-03-02T03:31:06;7.10;99.90
60293;DHT22;52402;52.670;6.750;2024-03-02T03:33:32;7.00;99.90
60293;DHT22;52402;52.670;6.750;2024-03-02T03:35:57;7.10;99.90
60293;DHT22;52402;52.670;6.750;2024-03-02T03:38:23;7.00;99.90
60293;DHT22;52402;52.670;6.750;2024-03-02T03:40:49;7.00;99.90
60293;DHT22;52402;52.670;6.750;2024-03-02T03:43:14;7.10;99.90
60293;DHT22;52402;52.670;6.750;2024-03-02T03:45:40;7.10;99.90
60293;DHT22;52402;52.670;6.750;2024-03-02T03:48:06;7.10;99.90
60293;DHT22;52402;52.670;6.750;2024-03-02T03:50:32;7.10;99.90
60293;DHT22;52402;52.670;6.750;2024-03-02T03:52:57;7.10;99.90
60293;DHT22;52402;52.670;6.750;2024-03-02T03:55:23;7.20;99.90
60293;DHT22;52402;52.670;6.750;2024-03-02T03:57:49;7.20;99.90
60293;DHT22;52402;52.670;6.750;2024-03-02T04:00:14;7.20;99.90
60293;DHT22;52402;52.670;6.750;2024-03-02T04:02:40;7.20;99.90
60293;DHT22;52402;52.670;6.750;2024-03-02T04:05:06;7.20;99.90
60293;DHT22;52402;52.670;6.750;2024-03-02T04:07:38;7.20;99.90
60293;DHT22;52402;52.670;6.750;2024-03-02T04:10:09;7.20;99.90
60293;DHT22;52402;52.670;6.750;2024-03-02T04:12:36;7.20;99.90
60293;DHT22;52402;52.670;6.750;2024-03-02T04:15:04;7.20;99.90
60293;DHT22;52402;52.670;6.750;2024-03-02T04:17:31;7.20;99.90
60293;DHT22;52402;52.670;6.750;2024-03-02T04:19:57;7.20;99.90
60293;DHT22;52402;52.670;6.750;2024-03-02T04:22:23;7.20;99.90
60293;DHT22;52402;52.670;6.750;2024-03-02T04:24:49;7.20;99.90
60293;DHT22;52402;52.670;6.750;2024-03-02T04:27:15;7.20;99.90
60293;DHT22;52402;52.670;6.750;2024-03-02T04:29:40;7.20;99.90
60293;DHT22;52402;52.670;6.750;2024-03-02T04:32:06;7.20;99.90
60293;DHT22;52402;52.670;6.750;2024-03-02T04:34:32;7.20;99.90
60293;DHT22;52402;52.670;6.750;2024-03-02T04:36:57;7.20;99.90
60293;DHT22;52402;52.670;6.750;2024-03-02T04:39:23;7.20;99.90
60293;DHT22;52402;52.670;6.750;2024-03-02T04:41:50;7.20;99.90
60293;DHT22;52402;52.670;6.750;2024-03-02T04:44:15;7.20;99.90
60293;DHT22;52402;52.670;6.750;2024-03-02T04:46:41;7.20;99.90
60293;DHT22;52402;52.670;6.750;2024-03-02T04:49:06;7.10;99.90
60293;DHT22;52402;52.670;6.750;2024-03-02T04:51:32;7.10;99.90
60293;DHT22;52402;52.670;6.750;2024-03-02T04:53:58;7.10;99.90
60293;DHT22;52402;52.670;6.750;2024-03-02T04:56:23;7.10;99.90
60293;DHT22;52402;52.670;6.750;2024-03-02T04:59:10;7.10;99.90
60293;DHT22;52402;52.670;6.750;2024-03-02T05:01:35;7.00;99.90
60293;DHT22;52402;52.670;6.750;2024-03-02T05:04:01;7.10;99.90
60293;DHT22;52402;52.670;6.750;2024-03-02T05:06:27;7.00;99.90
60293;DHT22;52402;52.670;6.750;2024-03-02T05:08:52;7.00;99.90
60293;DHT22;52402;52.670;6.750;2024-03-02T05:11:18;7.00;99.90
60293;DHT22;52402;52.670;6.750;2024-03-02T05:14:02;7.00;99.90
60293;DHT22;52402;52.670;6.750;2024-03-02T05:16:28;6.90;99.90
60293;DHT22;52402;52.670;6.750;2024-03-02T05:18:53;7.00;99.90
60293;DHT22;52402;52.670;6.750;2024-03-02T05:21:19;6.90;99.90
60293;DHT22;52402;52.670;6.750;2024-03-02T05:23:44;6.80;99.90
60293;DHT22;52402;52.670;6.750;2024-03-02T05:26:10;6.80;99.90
60293;DHT22;52402;52.670;6.750;2024-03-02T05:28:38;6.70;99.90
60293;DHT22;52402;52.670;6.750;2024-03-02T05:31:04;6.60;99.90
60293;DHT22;52402;52.670;6.750;2024-03-02T05:33:30;6.60;99.90
60293;DHT22;52402;52.670;6.750;2024-03-02T05:35:58;6.50;99.90
60293;DHT22;52402;52.670;6.750;2024-03-02T05:38:24;6.40;99.90
60293;DHT22;52402;52.670;6.750;2024-03-02T05:40:50;6.40;99.90
60293;DHT22;52402;52.670;6.750;2024-03-02T05:43:15;6.50;99.90
60293;DHT22;52402;52.670;6.750;2024-03-02T05:45:41;6.40;99.90
60293;DHT22;52402;52.670;6.750;2024-03-02T05:48:07;6.30;99.90
60293;DHT22;52402;52.670;6.750;2024-03-02T05:50:33;6.20;99.90
60293;DHT22;52402;52.670;6.750;2024-03-02T05:52:58;6.10;99.90
60293;DHT22;52402;52.670;6.750;2024-03-02T05:55:24;6.00;99.90
60293;DHT22;52402;52.670;6.750;2024-03-02T05:57:50;6.00;99.90
60293;DHT22;52402;52.670;6.750;2024-03-02T06:00:22;5.90;99.90
60293;DHT22;52402;52.670;6.750;2024-03-02T06:02:47;5.80;99.90
60293;DHT22;52402;52.670;6.750;2024-03-02T06:05:13;5.80;99.90
60293;DHT22;52402;52.670;6.750;2024-03-02T06:07:40;5.70;99.90
60293;DHT22;52402;52.670;6.750;2024-03-02T06:10:06;5.70;99.90
60293;DHT22;52402;52.670;6.750;2024-03-02T06:12:32;5.70;99.90
60293;DHT22;52402;52.670;6.750;2024-03-02T06:14:58;5.70;99.90
60293;DHT22;52402;52.670;6.750;2024-03-02T06:17:24;5.80;99.90
60293;DHT22;52402;52.670;6.750;2024-03-02T06:19:49;5.80;99.90
60293;DHT22;52402;52.670;6.750;2024-03-02T06:22:15;5.80;99.90
60293;DHT22;52402;52.670;6.750;2024-03-02T06:24:40;5.90;99.90
60293;DHT22;52402;52.670;6.750;2024-03-02T06:27:06;5.90;99.90
60293;DHT22;52402;52.670;6.750;2024-03-02T06:29:35;6.00;99.90
60293;DHT22;52402;52.670;6.750;2024-03-02T06:32:00;6.00;99.90
60293;DHT22;52402;52.670;6.750;2024-03-02T06:34:26;6.00;99.90
60293;DHT22;52402;52.670;6.750;2024-03-02T06:36:52;6.00;99.90
60293;DHT22;52402;52.670;6.750;2024-03-02T06:39:17;6.00;99.90
60293;DHT22;52402;52.670;6.750;2024-03-02T06:41:43;6.00;99.90
60293;DHT22;52402;52.670;6.750;2024-03-02T06:44:08;6.00;99.90
60293;DHT22;52402;52.670;6.750;2024-03-02T06:46:34;6.00;99.90
60293;DHT22;52402;52.670;6.750;2024-03-02T06:48:59;6.00;99.90
60293;DHT22;52402;52.670;6.750;2024-03-02T06:51:27;6.00;99.90
60293;DHT22;52402;52.670;6.750;2024-03-02T06:53:53;6.00;99.90
60293;DHT22;52402;52.670;6.750;2024-03-02T06:56:18;6.00;99.90
60293;DHT22;52402;52.670;6.750;2024-03-02T06:58:44;6.00;99.90
60293;DHT22;52402;52.670;6.750;2024-03-02T07:01:10;5.90;99.90
60293;DHT22;52402;52.670;6.750;2024-03-02T07:03:35;5.90;99.90
60293;DHT22;52402;52.670;6.750;2024-03-02T07:06:01;5.80;99.90
60293;DHT22;52402;52.670;6.750;2024-03-02T07:08:26;5.80;99.90
60293;DHT22;52402;52.670;6.750;2024-03-02T07:10:52;5.80;99.90
60293;DHT22;52402;52.670;6.750;2024-03-02T07:13:18;5.80;99.90
60293;DHT22;52402;52.670;6.750;2024-03-02T07:15:43;5.70;99.90
60293;DHT22;52402;52.670;6.750;2024-03-02T07:18:18;5.70;99.90
60293;DHT22;52402;52.670;6.750;2024-03-02T07:20:43;5.70;99.90
60293;DHT22;52402;52.670;6.750;2024-03-02T07:23:09;5.70;99.90
60293;DHT22;52402;52.670;6.750;2024-03-02T07:25:34;5.80;99.90
60293;DHT22;52402;52.670;6.750;2024-03-02T07:28:00;5.80;99.90
60293;DHT22;52402;52.670;6.750;2024-03-02T07:30:26;5.80;99.90
60293;DHT22;52402;52.670;6.750;2024-03-02T07:32:51;5.90;99.90
60293;DHT22;52402;52.670;6.750;2024-03-02T07:35:17;5.90;99.90
60293;DHT22;52402;52.670;6.750;2024-03-02T07:37:43;6.00;99.90
60293;DHT22;52402;52.670;6.750;2024-03-02T07:40:10;6.10;99.90
60293;DHT22;52402;52.670;6.750;2024-03-02T07:42:40;6.20;99.90
60293;DHT22;52402;52.670;6.750;2024-03-02T07:45:06;6.20;99.90
60293;DHT22;52402;52.670;6.750;2024-03-02T07:47:35;6.20;99.90
60293;DHT22;52402;52.670;6.750;2024-03-02T07:50:01;6.30;99.90
60293;DHT22;52402;52.670;6.750;2024-03-02T07:52:26;6.30;99.90
60293;DHT22;52402;52.670;6.750;2024-03-02T07:54:52;6.40;99.90
60293;DHT22;52402;52.670;6.750;2024-03-02T07:57:18;6.40;99.90
60293;DHT22;52402;52.670;6.750;2024-03-02T07:59:43;6.50;99.90
60293;DHT22;52402;52.670;6.750;2024-03-02T08:02:09;6.60;99.90
60293;DHT22;52402;52.670;6.750;2024-03-02T08:04:35;6.70;99.90
60293;DHT22;52402;52.670;6.750;2024-03-02T08:07:02;6.80;99.90
60293;DHT22;52402;52.670;6.750;2024-03-02T08:09:28;6.90;99.90
60293;DHT22;52402;52.670;6.750;2024-03-02T08:11:54;6.90;99.90
60293;DHT22;52402;52.670;6.750;2024-03-02T08:14:19;6.90;99.90
60293;DHT22;52402;52.670;6.750;2024-03-02T08:16:45;6.90;99.90
60293;DHT22;52402;52.670;6.750;2024-03-02T08:19:12;6.80;99.90
60293;DHT22;52402;52.670;6.750;2024-03-02T08:21:37;6.90;99.90
60293;DHT22;52402;52.670;6.750;2024-03-02T08:24:03;7.00;99.90
60293;DHT22;52402;52.670;6.750;2024-03-02T08:26:29;7.10;99.90
60293;DHT22;52402;52.670;6.750;2024-03-02T08:28:57;7.20;99.90
60293;DHT22;52402;52.670;6.750;2024-03-02T08:31:23;7.30;99.90
60293;DHT22;52402;52.670;6.750;2024-03-02T08:33:48;7.40;99.90
60293;DHT22;52402;52.670;6.750;2024-03-02T08:36:14;7.50;99.90
60293;DHT22;52402;52.670;6.750;2024-03-02T08:38:41;7.70;99.90
60293;DHT22;52402;52.670;6.750;2024-03-02T08:41:07;7.80;99.90
60293;DHT22;52402;52.670;6.750;2024-03-02T08:43:33;7.90;99.90
60293;DHT22;52402;52.670;6.750;2024-03-02T08:45:58;8.00;99.90
60293;DHT22;52402;52.670;6.750;2024-03-02T08:48:24;8.10;99.90
60293;DHT22;52402;52.670;6.750;2024-03-02T08:50:50;8.20;99.90
60293;DHT22;52402;52.670;6.750;2024-03-02T08:53:15;8.20;99.90
60293;DHT22;52402;52.670;6.750;2024-03-02T08:55:45;8.30;99.90
60293;DHT22;52402;52.670;6.750;2024-03-02T08:58:11;8.40;99.90
60293;DHT22;52402;52.670;6.750;2024-03-02T09:00:36;8.50;99.90
60293;DHT22;52402;52.670;6.750;2024-03-02T09:03:02;8.50;99.90
60293;DHT22;52402;52.670;6.750;2024-03-02T09:05:28;8.60;99.90
60293;DHT22;52402;52.670;6.750;2024-03-02T09:07:54;8.70;99.90
60293;DHT22;52402;52.670;6.750;2024-03-02T09:10:19;8.80;99.90
60293;DHT22;52402;52.670;6.750;2024-03-02T09:12:45;9.00;99.90
60293;DHT22;52402;52.670;6.750;2024-03-02T09:15:10;9.10;99.90
60293;DHT22;52402;52.670;6.750;2024-03-02T09:17:36;9.30;99.90
60293;DHT22;52402;52.670;6.750;2024-03-02T09:20:02;9.30;99.90
60293;DHT22;52402;52.670;6.750;2024-03-02T09:22:29;9.40;99.90
60293;DHT22;52402;52.670;6.750;2024-03-02T09:24:55;9.30;99.90
60293;DHT22;52402;52.670;6.750;2024-03-02T09:27:21;9.30;99.90
60293;DHT22;52402;52.670;6.750;2024-03-02T09:29:47;9.30;99.90
60293;DHT22;52402;52.670;6.750;2024-03-02T09:32:13;9.40;99.90
60293;DHT22;52402;52.670;6.750;2024-03-02T09:34:40;9.40;99.90
60293;DHT22;52402;52.670;6.750;2024-03-02T09:37:06;9.40;99.90
60293;DHT22;52402;52.670;6.750;2024-03-02T09:39:31;9.40;99.90
60293;DHT22;52402;52.670;6.750;2024-03-02T09:41:58;9.40;99.90
60293;DHT22;52402;52.670;6.750;2024-03-02T09:44:25;9.40;99.90
60293;DHT22;52402;52.670;6.750;2024-03-02T09:46:52;9.40;99.90
60293;DHT22;52402;52.670;6.750;2024-03-02T09:49:17;9.50;99.90
60293;DHT22;52402;52.670;6.750;2024-03-02T09:51:49;9.50;99.90
60293;DHT22;52402;52.670;6.750;2024-03-02T09:54:18;9.50;99.90
60293;DHT22;52402;52.670;6.750;2024-03-02T09:56:44;9.70;99.90
60293;DHT22;52402;52.670;6.750;2024-03-02T09:59:10;9.80;99.90
60293;DHT22;52402;52.670;6.750;2024-03-02T10:01:35;9.90;99.90
60293;DHT22;52402;52.670;6.750;2024-03-02T10:04:01;10.00;99.90
60293;DHT22;52402;52.670;6.750;2024-03-02T10:06:28;10.10;99.90
60293;DHT22;52402;52.670;6.750;2024-03-02T10:08:55;10.10;99.90
60293;DHT22;52402;52.670;6.750;2024-03-02T10:14:05;10.00;99.90
60293;DHT22;52402;52.670;6.750;2024-03-02T10:16:37;10.00;99.90
60293;DHT22;52402;52.670;6.750;2024-03-02T10:19:23;10.00;99.90
60293;DHT22;52402;52.670;6.750;2024-03-02T10:21:53;9.90;99.90
60293;DHT22;52402;52.670;6.750;2024-03-02T10:24:20;10.00;99.90
60293;DHT22;52402;52.670;6.750;2024-03-02T10:26:46;10.00;99.90
60293;DHT22;52402;52.670;6.750;2024-03-02T10:29:13;10.10;99.90
60293;DHT22;52402;52.670;6.750;2024-03-02T10:31:40;10.20;99.90
60293;DHT22;52402;52.670;6.750;2024-03-02T10:34:10;10.30;99.90
60293;DHT22;52402;52.670;6.750;2024-03-02T10:36:36;10.30;99.90
60293;DHT22;52402;52.670;6.750;2024-03-02T10:39:07;10.30;99.90
60293;DHT22;52402;52.670;6.750;2024-03-02T10:41:34;10.30;99.90
60293;DHT22;52402;52.670;6.750;2024-03-02T10:44:05;10.30;99.90
60293;DHT22;52402;52.670;6.750;2024-03-02T10:46:32;10.30;99.90
60293;DHT22;52402;52.670;6.750;2024-03-02T10:48:59;10.30;99.90
60293;DHT22;52402;52.670;6.750;2024-03-02T10:51:26;10.40;99.90
60293;DHT22;52402;52.670;6.750;2024-03-02T10:53:53;10.50;99.90
60293;DHT22;52402;52.670;6.750;2024-03-02T10:56:27;10.70;99.90
60293;DHT22;52402;52.670;6.750;2024-03-02T10:59:16;10.90;99.90
60293;DHT22;52402;52.670;6.750;2024-03-02T11:01:43;11.00;99.90
60293;DHT22;52402;52.670;6.750;2024-03-02T11:04:13;11.20;99.90
60293;DHT22;52402;52.670;6.750;2024-03-02T11:06:47;11.40;99.90
60293;DHT22;52402;52.670;6.750;2024-03-02T11:09:14;11.40;99.90
60293;DHT22;52402;52.670;6.750;2024-03-02T11:11:42;11.50;99.90
60293;DHT22;52402;52.670;6.750;2024-03-02T11:14:13;11.60;99.90
60293;DHT22;52402;52.670;6.750;2024-03-02T11:16:39;11.60;99.90
60293;DHT22;52402;52.670;6.750;2024-03-02T11:19:14;11.70;99.90
60293;DHT22;52402;52.670;6.750;2024-03-02T11:21:40;11.70;99.90
60293;DHT22;52402;52.670;6.750;2024-03-02T11:26:47;12.00;99.90
60293;DHT22;52402;52.670;6.750;2024-03-02T11:32:00;12.20;99.90
60293;DHT22;52402;52.670;6.750;2024-03-02T11:34:34;12.30;99.90
60293;DHT22;52402;52.670;6.750;2024-03-02T11:37:04;12.30;99.90
60293;DHT22;52402;52.670;6.750;2024-03-02T11:39:30;12.40;99.90
60293;DHT22;52402;52.670;6.750;2024-03-02T11:41:56;12.30;99.90
60293;DHT22;52402;52.670;6.750;2024-03-02T11:44:28;12.30;99.90
60293;DHT22;52402;52.670;6.750;2024-03-02T11:47:01;12.20;99.90
60293;DHT22;52402;52.670;6.750;2024-03-02T11:49:41;12.30;99.90
60293;DHT22;52402;52.670;6.750;2024-03-02T11:52:15;12.30;99.90
60293;DHT22;52402;52.670;6.750;2024-03-02T11:54:43;12.30;99.90
60293;DHT22;52402;52.670;6.750;2024-03-02T11:57:16;12.30;99.90
60293;DHT22;52402;52.670;6.750;2024-03-02T11:59:42;12.40;99.90
60293;DHT22;52402;52.670;6.750;2024-03-02T12:02:23;12.50;99.90
60293;DHT22;52402;52.670;6.750;2024-03-02T12:04:49;12.50;99.90
60293;DHT22;52402;52.670;6.750;2024-03-02T12:07:24;12.60;99.90
60293;DHT22;52402;52.670;6.750;2024-03-02T12:09:59;12.50;99.90
60293;DHT22;52402;52.670;6.750;2024-03-02T12:12:25;12.60;99.90
60293;DHT22;52402;52.670;6.750;2024-03-02T12:14:52;12.70;99.90
60293;DHT22;52402;52.670;6.750;2024-03-02T12:17:20;12.70;99.90
60293;DHT22;52402;52.670;6.750;2024-03-02T12:19:46;12.70;99.90
60293;DHT22;52402;52.670;6.750;2024-03-02T12:22:12;12.80;99.90
60293;DHT22;52402;52.670;6.750;2024-03-02T12:24:37;12.90;99.90
60293;DHT22;52402;52.670;6.750;2024-03-02T12:27:05;12.90;99.90
60293;DHT22;52402;52.670;6.750;2024-03-02T12:29:31;13.00;99.90
60293;DHT22;52402;52.670;6.750;2024-03-02T12:31:56;13.20;99.90
60293;DHT22;52402;52.670;6.750;2024-03-02T12:34:22;13.20;99.90
60293;DHT22;52402;52.670;6.750;2024-03-02T12:36:48;13.30;99.90
60293;DHT22;52402;52.670;6.750;2024-03-02T12:39:21;13.30;99.90
60293;DHT22;52402;52.670;6.750;2024-03-02T12:41:49;13.30;99.90
60293;DHT22;52402;52.670;6.750;2024-03-02T12:44:16;13.40;99.90
60293;DHT22;52402;52.670;6.750;2024-03-02T12:46:43;13.50;99.90
60293;DHT22;52402;52.670;6.750;2024-03-02T12:49:13;13.30;99.90
60293;DHT22;52402;52.670;6.750;2024-03-02T12:51:40;13.10;99.90
60293;DHT22;52402;52.670;6.750;2024-03-02T12:54:10;13.20;99.90
60293;DHT22;52402;52.670;6.750;2024-03-02T12:56:37;13.20;99.90
60293;DHT22;52402;52.670;6.750;2024-03-02T12:59:06;13.10;99.90
60293;DHT22;52402;52.670;6.750;2024-03-02T13:01:31;13.00;99.90
60293;DHT22;52402;52.670;6.750;2024-03-02T13:03:58;12.90;99.90
60293;DHT22;52402;52.670;6.750;2024-03-02T13:06:25;13.00;99.90
60293;DHT22;52402;52.670;6.750;2024-03-02T13:08:53;13.00;99.90
60293;DHT22;52402;52.670;6.750;2024-03-02T13:11:21;13.00;99.90
60293;DHT22;52402;52.670;6.750;2024-03-02T13:13:47;13.10;99.90
60293;DHT22;52402;52.670;6.750;2024-03-02T13:16:13;13.30;99.90
60293;DHT22;52402;52.670;6.750;2024-03-02T13:18:39;13.40;99.90
60293;DHT22;52402;52.670;6.750;2024-03-02T13:21:07;13.50;99.90
60293;DHT22;52402;52.670;6.750;2024-03-02T13:23:32;13.60;99.90
60293;DHT22;52402;52.670;6.750;2024-03-02T13:25:58;13.60;99.90
60293;DHT22;52402;52.670;6.750;2024-03-02T13:28:25;13.60;99.90
60293;DHT22;52402;52.670;6.750;2024-03-02T13:30:50;13.70;99.90
60293;DHT22;52402;52.670;6.750;2024-03-02T13:33:16;13.70;99.90
60293;DHT22;52402;52.670;6.750;2024-03-02T13:35:53;13.70;99.90
60293;DHT22;52402;52.670;6.750;2024-03-02T13:38:20;13.80;99.90
60293;DHT22;52402;52.670;6.750;2024-03-02T13:40:46;13.80;99.90
60293;DHT22;52402;52.670;6.750;2024-03-02T13:43:13;13.70;99.90
60293;DHT22;52402;52.670;6.750;2024-03-02T13:45:39;13.60;99.90
60293;DHT22;52402;52.670;6.750;2024-03-02T13:48:05;13.50;99.90
60293;DHT22;52402;52.670;6.750;2024-03-02T13:50:31;13.50;99.90
60293;DHT22;52402;52.670;6.750;2024-03-02T13:52:57;13.50;99.90
60293;DHT22;52402;52.670;6.750;2024-03-02T13:55:23;13.40;99.90
60293;DHT22;52402;52.670;6.750;2024-03-02T13:57:48;13.30;99.90
60293;DHT22;52402;52.670;6.750;2024-03-02T14:00:16;13.30;99.90
60293;DHT22;52402;52.670;6.750;2024-03-02T14:02:43;13.30;99.90
60293;DHT22;52402;52.670;6.750;2024-03-02T14:05:08;13.20;99.90
60293;DHT22;52402;52.670;6.750;2024-03-02T14:07:43;13.10;99.90
60293;DHT22;52402;52.670;6.750;2024-03-02T14:10:11;13.10;99.90
60293;DHT22;52402;52.670;6.750;2024-03-02T14:12:37;13.10;99.90
60293;DHT22;52402;52.670;6.750;2024-03-02T14:15:03;13.00;99.90
60293;DHT22;52402;52.670;6.750;2024-03-02T14:17:29;13.10;99.90
60293;DHT22;52402;52.670;6.750;2024-03-02T14:19:57;13.10;99.90
60293;DHT22;52402;52.670;6.750;2024-03-02T14:22:24;13.20;99.90
60293;DHT22;52402;52.670;6.750;2024-03-02T14:24:50;13.30;99.90
60293;DHT22;52402;52.670;6.750;2024-03-02T14:27:16;13.50;99.90
60293;DHT22;52402;52.670;6.750;2024-03-02T14:29:42;13.50;99.90
60293;DHT22;52402;52.670;6.750;2024-03-02T14:32:08;13.40;99.90
60293;DHT22;52402;52.670;6.750;2024-03-02T14:34:34;13.30;99.90
60293;DHT22;52402;52.670;6.750;2024-03-02T14:37:00;13.40;99.90
60293;DHT22;52402;52.670;6.750;2024-03-02T14:39:28;13.30;99.90
60293;DHT22;52402;52.670;6.750;2024-03-02T14:41:55;13.20;99.90
60293;DHT22;52402;52.670;6.750;2024-03-02T14:44:21;13.10;99.90
60293;DHT22;52402;52.670;6.750;2024-03-02T14:46:47;13.10;99.90
60293;DHT22;52402;52.670;6.750;2024-03-02T14:49:13;13.00;99.90
60293;DHT22;52402;52.670;6.750;2024-03-02T14:51:39;12.90;99.90
60293;DHT22;52402;52.670;6.750;2024-03-02T14:54:05;12.80;99.90
60293;DHT22;52402;52.670;6.750;2024-03-02T14:56:30;12.90;99.90
60293;DHT22;52402;52.670;6.750;2024-03-02T14:58:56;13.00;99.90
60293;DHT22;52402;52.670;6.750;2024-03-02T15:01:22;13.00;99.90
60293;DHT22;52402;52.670;6.750;2024-03-02T15:03:52;13.10;99.90
60293;DHT22;52402;52.670;6.750;2024-03-02T15:06:18;13.10;99.90
60293;DHT22;52402;52.670;6.750;2024-03-02T15:08:44;13.20;99.90
60293;DHT22;52402;52.670;6.750;2024-03-02T15:11:12;13.10;99.90
60293;DHT22;52402;52.670;6.750;2024-03-02T15:13:38;13.10;99.90
60293;DHT22;52402;52.670;6.750;2024-03-02T15:16:03;13.10;99.90
60293;DHT22;52402;52.670;6.750;2024-03-02T15:18:29;13.10;99.90
60293;DHT22;52402;52.670;6.750;2024-03-02T15:20:55;13.20;99.90
60293;DHT22;52402;52.670;6.750;2024-03-02T15:23:23;13.20;99.90
60293;DHT22;52402;52.670;6.750;2024-03-02T15:25:49;13.10;99.90
60293;DHT22;52402;52.670;6.750;2024-03-02T15:28:15;13.10;99.90
60293;DHT22;52402;52.670;6.750;2024-03-02T15:30:40;13.10;99.90
60293;DHT22;52402;52.670;6.750;2024-03-02T15:33:06;13.00;99.90
60293;DHT22;52402;52.670;6.750;2024-03-02T15:35:47;13.00;99.90
60293;DHT22;52402;52.670;6.750;2024-03-02T15:38:13;12.90;99.90
60293;DHT22;52402;52.670;6.750;2024-03-02T15:40:40;12.90;99.90
60293;DHT22;52402;52.670;6.750;2024-03-02T15:43:06;12.80;99.90
60293;DHT22;52402;52.670;6.750;2024-03-02T15:45:31;12.70;99.90
60293;DHT22;52402;52.670;6.750;2024-03-02T15:47:59;12.70;99.90
60293;DHT22;52402;52.670;6.750;2024-03-02T15:50:26;12.60;99.90
60293;DHT22;52402;52.670;6.750;2024-03-02T15:52:52;12.50;99.90